sensor_id;sensor_type;location;lat;lon;timestamp;pressure;altitude;pressure_sealevel;temperature;humidity
62510;BME280;48558;48.242;11.654;2023-01-31T00:04:08;96877.19;;;2.41;100.00
62510;BME280;48558;48.242;11.654;2023-01-31T00:08:23;96891.97;;;2.40;100.00
62510;BME280;48558;48.242;11.654;2023-01-31T00:12:35;96879.53;;;2.36;100.00
62510;BME280;48558;48.242;11.654;2023-01-31T00:16:48;96885.38;;;2.34;100.00
62510;BME280;48558;48.242;11.654;2023-01-31T00:21:09;96899.00;;;2.38;100.00
62510;BME280;48558;48.242;11.654;2023-01-31T00:25:33;96876.41;;;2.37;100.00
62510;BME280;48558;48.242;11.654;2023-01-31T00:29:46;96881.09;;;2.37;100.00
62510;BME280;48558;48.242;11.654;2023-01-31T00:34:10;96887.72;;;2.32;100.00
62510;BME280;48558;48.242;11.654;2023-01-31T00:38:23;96892.41;;;2.35;100.00
62510;BME280;48558;48.242;11.654;2023-01-31T00:42:36;96892.78;;;2.34;100.00
62510;BME280;48558;48.242;11.654;2023-01-31T00:46:49;96887.72;;;2.32;100.00
62510;BME280;48558;48.242;11.654;2023-01-31T00:51:01;96911.88;;;2.27;100.00
62510;BME280;48558;48.242;11.654;2023-01-31T00:55:14;96894.34;;;2.31;100.00
62510;BME280;48558;48.242;11.654;2023-01-31T00:59:26;96876.88;;;2.22;100.00
62510;BME280;48558;48.242;11.654;2023-01-31T01:03:40;96886.59;;;2.23;100.00
62510;BME280;48558;48.242;11.654;2023-01-31T01:07:53;96893.25;;;2.14;100.00
62510;BME280;48558;48.242;11.654;2023-01-31T01:12:05;96888.94;;;2.21;100.00
62510;BME280;48558;48.242;11.654;2023-01-31T01:16:21;96903.75;;;2.12;100.00
62510;BME280;48558;48.242;11.654;2023-01-31T01:20:35;96888.56;;;2.11;100.00
62510;BME280;48558;48.242;11.654;2023-01-31T01:24:47;96887.00;;;2.10;100.00
62510;BME280;48558;48.242;11.654;2023-01-31T01:29:01;96906.84;;;2.11;100.00
62510;BME280;48558;48.242;11.654;2023-01-31T01:33:14;96907.66;;;2.01;100.00
62510;BME280;48558;48.242;11.654;2023-01-31T01:37:26;96906.88;;;2.14;100.00
62510;BME280;48558;48.242;11.654;2023-01-31T01:41:39;96912.34;;;2.07;100.00
62510;BME280;48558;48.242;11.654;2023-01-31T01:45:52;96916.19;;;2.13;100.00
62510;BME280;48558;48.242;11.654;2023-01-31T01:54:46;96911.53;;;2.07;100.00
62510;BME280;48558;48.242;11.654;2023-01-31T01:59:09;96916.22;;;2.10;100.00
62510;BME280;48558;48.242;11.654;2023-01-31T02:03:25;96942.69;;;2.13;100.00
62510;BME280;48558;48.242;11.654;2023-01-31T02:07:37;96944.66;;;2.12;100.00
62510;BME280;48558;48.242;11.654;2023-01-31T02:11:51;96921.69;;;2.03;100.00
62510;BME280;48558;48.242;11.654;2023-01-31T02:16:03;96934.13;;;2.14;100.00
62510;BME280;48558;48.242;11.654;2023-01-31T02:29:32;96940.34;;;2.11;100.00
62510;BME280;48558;48.242;11.654;2023-01-31T02:50:08;96940.75;;;2.03;100.00
62510;BME280;48558;48.242;11.654;2023-01-31T02:54:25;96943.09;;;1.97;100.00
62510;BME280;48558;48.242;11.654;2023-01-31T02:59:22;96945.03;;;2.00;100.00
62510;BME280;48558;48.242;11.654;2023-01-31T03:03:39;96940.75;;;1.92;100.00
62510;BME280;48558;48.242;11.654;2023-01-31T03:07:57;96946.59;;;1.98;100.00
62510;BME280;48558;48.242;11.654;2023-01-31T03:12:56;96955.19;;;1.96;100.00
62510;BME280;48558;48.242;11.654;2023-01-31T03:17:30;96970.75;;;1.96;100.00
62510;BME280;48558;48.242;11.654;2023-01-31T03:22:09;96978.13;;;2.09;100.00
62510;BME280;48558;48.242;11.654;2023-01-31T03:26:24;96975.44;;;1.92;100.00
62510;BME280;48558;48.242;11.654;2023-01-31T03:30:47;96996.44;;;1.95;100.00
62510;BME280;48558;48.242;11.654;2023-01-31T03:35:03;97009.66;;;1.93;100.00
62510;BME280;48558;48.242;11.654;2023-01-31T03:39:40;97001.91;;;1.81;100.00
62510;BME280;48558;48.242;11.654;2023-01-31T03:49:09;97012.00;;;1.84;100.00
62510;BME280;48558;48.242;11.654;2023-01-31T03:53:35;97015.50;;;1.74;100.00
62510;BME280;48558;48.242;11.654;2023-01-31T03:57:53;97021.72;;;1.71;100.00
62510;BME280;48558;48.242;11.654;2023-01-31T04:02:09;96996.78;;;1.65;100.00
62510;BME280;48558;48.242;11.654;2023-01-31T04:06:23;97011.59;;;1.71;100.00
62510;BME280;48558;48.242;11.654;2023-01-31T04:10:36;97018.19;;;1.63;100.00
62510;BME280;48558;48.242;11.654;2023-01-31T04:14:48;97022.88;;;1.59;100.00
62510;BME280;48558;48.242;11.654;2023-01-31T04:19:01;97030.66;;;1.57;100.00
62510;BME280;48558;48.242;11.654;2023-01-31T04:23:14;97029.09;;;1.63;100.00
62510;BME280;48558;48.242;11.654;2023-01-31T04:27:26;97031.81;;;1.53;100.00
62510;BME280;48558;48.242;11.654;2023-01-31T04:31:39;97036.84;;;1.47;100.00
62510;BME280;48558;48.242;11.654;2023-01-31T04:35:52;97032.56;;;1.50;100.00
62510;BME280;48558;48.242;11.654;2023-01-31T04:40:05;97045.41;;;1.45;100.00
62510;BME280;48558;48.242;11.654;2023-01-31T04:44:19;97054.34;;;1.46;100.00
62510;BME280;48558;48.242;11.654;2023-01-31T04:48:31;97057.06;;;1.35;100.00
62510;BME280;48558;48.242;11.654;2023-01-31T04:52:53;97052.41;;;1.43;100.00
62510;BME280;48558;48.242;11.654;2023-01-31T04:57:07;97058.22;;;1.31;100.00
62510;BME280;48558;48.242;11.654;2023-01-31T05:01:19;97073.78;;;1.41;100.00
62510;BME280;48558;48.242;11.654;2023-01-31T05:05:42;97067.53;;;1.33;100.00
62510;BME280;48558;48.242;11.654;2023-01-31T05:09:54;97071.03;;;1.34;100.00
62510;BME280;48558;48.242;11.654;2023-01-31T05:14:07;97070.25;;;1.30;100.00
62510;BME280;48558;48.242;11.654;2023-01-31T05:18:19;97076.09;;;1.28;100.00
62510;BME280;48558;48.242;11.654;2023-01-31T05:22:32;97064.00;;;1.26;100.00
62510;BME280;48558;48.242;11.654;2023-01-31T05:26:44;97071.41;;;1.22;100.00
62510;BME280;48558;48.242;11.654;2023-01-31T05:31:04;97081.88;;;1.23;100.00
62510;BME280;48558;48.242;11.654;2023-01-31T05:35:24;97079.16;;;1.23;100.00
62510;BME280;48558;48.242;11.654;2023-01-31T05:39:36;97085.38;;;1.17;100.00
62510;BME280;48558;48.242;11.654;2023-01-31T05:43:59;97080.31;;;1.15;100.00
62510;BME280;48558;48.242;11.654;2023-01-31T05:48:12;97090.06;;;1.20;100.00
62510;BME280;48558;48.242;11.654;2023-01-31T05:52:25;97094.31;;;1.21;100.00
62510;BME280;48558;48.242;11.654;2023-01-31T05:56:47;97084.59;;;1.16;100.00
62510;BME280;48558;48.242;11.654;2023-01-31T06:01:00;97094.72;;;1.23;100.00
62510;BME280;48558;48.242;11.654;2023-01-31T06:05:13;97094.34;;;1.31;100.00
62510;BME280;48558;48.242;11.654;2023-01-31T06:09:25;97074.91;;;1.29;100.00
62510;BME280;48558;48.242;11.654;2023-01-31T06:13:39;97085.78;;;1.26;100.00
62510;BME280;48558;48.242;11.654;2023-01-31T06:17:55;97075.69;;;1.26;100.00
62510;BME280;48558;48.242;11.654;2023-01-31T06:22:08;97078.84;;;1.35;100.00
62510;BME280;48558;48.242;11.654;2023-01-31T06:26:20;97084.69;;;1.37;100.00
62510;BME280;48558;48.242;11.654;2023-01-31T06:30:33;97079.63;;;1.39;100.00
62510;BME280;48558;48.242;11.654;2023-01-31T06:34:46;97086.25;;;1.45;100.00
62510;BME280;48558;48.242;11.654;2023-01-31T06:38:59;97103.38;;;1.46;100.00
62510;BME280;48558;48.242;11.654;2023-01-31T06:43:11;97090.91;;;1.41;100.00
62510;BME280;48558;48.242;11.654;2023-01-31T06:47:24;97096.00;;;1.50;100.00
62510;BME280;48558;48.242;11.654;2023-01-31T06:51:36;97099.47;;;1.47;100.00
62510;BME280;48558;48.242;11.654;2023-01-31T06:55:59;97120.91;;;1.56;100.00
62510;BME280;48558;48.242;11.654;2023-01-31T07:00:12;97115.84;;;1.54;100.00
62510;BME280;48558;48.242;11.654;2023-01-31T07:04:25;97115.09;;;1.54;100.00
62510;BME280;48558;48.242;11.654;2023-01-31T07:08:37;97121.72;;;1.60;100.00
62510;BME280;48558;48.242;11.654;2023-01-31T07:12:49;97097.59;;;1.58;100.00
62510;BME280;48558;48.242;11.654;2023-01-31T07:17:02;97113.56;;;1.70;100.00
62510;BME280;48558;48.242;11.654;2023-01-31T07:21:14;97116.66;;;1.62;100.00
62510;BME280;48558;48.242;11.654;2023-01-31T07:25:37;97122.13;;;1.69;100.00
62510;BME280;48558;48.242;11.654;2023-01-31T07:29:54;97121.72;;;1.60;100.00
62510;BME280;48558;48.242;11.654;2023-01-31T07:34:06;97117.81;;;1.61;100.00
62510;BME280;48558;48.242;11.654;2023-01-31T07:38:33;97121.38;;;1.75;100.00
62510;BME280;48558;48.242;11.654;2023-01-31T07:42:46;97113.19;;;1.72;100.00
62510;BME280;48558;48.242;11.654;2023-01-31T07:47:09;97121.34;;;1.68;100.00
62510;BME280;48558;48.242;11.654;2023-01-31T07:51:21;97117.03;;;1.64;100.00
62510;BME280;48558;48.242;11.654;2023-01-31T07:55:40;97131.13;;;1.87;100.00
62510;BME280;48558;48.242;11.654;2023-01-31T07:59:53;97135.03;;;1.89;100.00
62510;BME280;48558;48.242;11.654;2023-01-31T08:04:16;97131.88;;;1.84;100.00
62510;BME280;48558;48.242;11.654;2023-01-31T08:08:34;97122.16;;;1.83;100.00
62510;BME280;48558;48.242;11.654;2023-01-31T08:12:57;97118.66;;;1.86;100.00
62510;BME280;48558;48.242;11.654;2023-01-31T08:17:10;97135.44;;;1.98;100.00
62510;BME280;48558;48.242;11.654;2023-01-31T08:21:27;97130.34;;;1.97;100.00
62510;BME280;48558;48.242;11.654;2023-01-31T08:25:39;97132.72;;;1.98;100.00
62510;BME280;48558;48.242;11.654;2023-01-31T08:29:52;97131.19;;;2.22;100.00
62510;BME280;48558;48.242;11.654;2023-01-31T08:34:05;97131.16;;;2.15;100.00
62510;BME280;48558;48.242;11.654;2023-01-31T08:38:18;97125.72;;;2.15;100.00
62510;BME280;48558;48.242;11.654;2023-01-31T08:42:30;97135.88;;;2.22;100.00
62510;BME280;48558;48.242;11.654;2023-01-31T08:46:43;97133.13;;;2.36;100.00
62510;BME280;48558;48.242;11.654;2023-01-31T08:51:09;97147.97;;;2.45;100.00
62510;BME280;48558;48.242;11.654;2023-01-31T08:55:23;97130.41;;;2.60;100.00
62510;BME280;48558;48.242;11.654;2023-01-31T08:59:46;97121.88;;;2.62;100.00
62510;BME280;48558;48.242;11.654;2023-01-31T09:03:58;97136.66;;;2.61;100.00
62510;BME280;48558;48.242;11.654;2023-01-31T09:08:11;97114.84;;;2.57;100.00
62510;BME280;48558;48.242;11.654;2023-01-31T09:12:32;97126.47;;;2.97;100.00
62510;BME280;48558;48.242;11.654;2023-01-31T09:16:45;97106.16;;;3.15;100.00
62510;BME280;48558;48.242;11.654;2023-01-31T09:21:03;97119.38;;;3.34;100.00
62510;BME280;48558;48.242;11.654;2023-01-31T09:25:16;97135.03;;;3.20;100.00
62510;BME280;48558;48.242;11.654;2023-01-31T09:29:37;97119.00;;;3.32;100.00
62510;BME280;48558;48.242;11.654;2023-01-31T09:33:50;97132.22;;;3.41;100.00
62510;BME280;48558;48.242;11.654;2023-01-31T09:38:02;97143.94;;;3.38;100.00
62510;BME280;48558;48.242;11.654;2023-01-31T09:42:25;97145.84;;;3.55;100.00
62510;BME280;48558;48.242;11.654;2023-01-31T09:46:44;97123.84;;;3.87;100.00
62510;BME280;48558;48.242;11.654;2023-01-31T09:51:01;97150.84;;;3.74;100.00
62510;BME280;48558;48.242;11.654;2023-01-31T09:55:43;97158.81;;;3.30;100.00
62510;BME280;48558;48.242;11.654;2023-01-31T10:00:32;97132.59;;;3.50;100.00
62510;BME280;48558;48.242;11.654;2023-01-31T10:14:35;97124.56;;;3.98;100.00
62510;BME280;48558;48.242;11.654;2023-01-31T10:19:04;97122.38;;;3.68;100.00
62510;BME280;48558;48.242;11.654;2023-01-31T10:23:40;97113.81;;;3.55;100.00
62510;BME280;48558;48.242;11.654;2023-01-31T10:28:00;97109.38;;;3.86;100.00
62510;BME280;48558;48.242;11.654;2023-01-31T10:32:30;97105.22;;;3.60;100.00
62510;BME280;48558;48.242;11.654;2023-01-31T10:41:17;97103.69;;;3.56;100.00
62510;BME280;48558;48.242;11.654;2023-01-31T10:45:34;97096.53;;;3.76;100.00
62510;BME280;48558;48.242;11.654;2023-01-31T10:49:48;97091.75;;;3.94;100.00
62510;BME280;48558;48.242;11.654;2023-01-31T10:54:52;97083.47;;;4.08;100.00
62510;BME280;48558;48.242;11.654;2023-01-31T10:59:32;97084.78;;;3.86;100.00
62510;BME280;48558;48.242;11.654;2023-01-31T11:03:57;97073.69;;;4.07;100.00
62510;BME280;48558;48.242;11.654;2023-01-31T11:08:59;97052.88;;;4.24;100.00
62510;BME280;48558;48.242;11.654;2023-01-31T11:13:18;97057.56;;;4.23;99.37
62510;BME280;48558;48.242;11.654;2023-01-31T11:17:42;97054.06;;;4.19;100.00
62510;BME280;48558;48.242;11.654;2023-01-31T11:21:55;97037.81;;;3.98;98.93
62510;BME280;48558;48.242;11.654;2023-01-31T11:26:08;97038.56;;;4.06;100.00
62510;BME280;48558;48.242;11.654;2023-01-31T11:30:35;97024.69;;;3.79;98.23
62510;BME280;48558;48.242;11.654;2023-01-31T11:35:00;97026.78;;;4.12;100.00
62510;BME280;48558;48.242;11.654;2023-01-31T11:39:33;97016.03;;;4.35;100.00
62510;BME280;48558;48.242;11.654;2023-01-31T11:43:48;97007.09;;;4.28;100.00
62510;BME280;48558;48.242;11.654;2023-01-31T11:48:23;97000.28;;;4.06;100.00
62510;BME280;48558;48.242;11.654;2023-01-31T11:52:37;96981.84;;;4.13;100.00
62510;BME280;48558;48.242;11.654;2023-01-31T11:56:51;96972.59;;;3.97;100.00
62510;BME280;48558;48.242;11.654;2023-01-31T12:05:32;96970.94;;;4.10;100.00
62510;BME280;48558;48.242;11.654;2023-01-31T12:09:47;96949.78;;;4.14;100.00
62510;BME280;48558;48.242;11.654;2023-01-31T12:14:14;96930.53;;;3.84;100.00
62510;BME280;48558;48.242;11.654;2023-01-31T12:18:36;96958.97;;;3.93;100.00
62510;BME280;48558;48.242;11.654;2023-01-31T12:23:21;96966.31;;;4.03;100.00
62510;BME280;48558;48.242;11.654;2023-01-31T12:28:08;96968.56;;;4.15;100.00
62510;BME280;48558;48.242;11.654;2023-01-31T12:32:52;96952.81;;;4.23;100.00
62510;BME280;48558;48.242;11.654;2023-01-31T12:37:32;96954.34;;;4.27;100.00
62510;BME280;48558;48.242;11.654;2023-01-31T12:42:01;96943.38;;;3.90;100.00
62510;BME280;48558;48.242;11.654;2023-01-31T12:46:24;96939.69;;;4.07;100.00
62510;BME280;48558;48.242;11.654;2023-01-31T13:04:58;96924.84;;;4.46;100.00
62510;BME280;48558;48.242;11.654;2023-01-31T13:09:21;96916.41;;;3.92;100.00
62510;BME280;48558;48.242;11.654;2023-01-31T13:13:44;96904.56;;;4.06;100.00
62510;BME280;48558;48.242;11.654;2023-01-31T13:18:09;96888.63;;;3.97;100.00
62510;BME280;48558;48.242;11.654;2023-01-31T13:22:45;96921.41;;;4.01;100.00
62510;BME280;48558;48.242;11.654;2023-01-31T13:27:10;96887.13;;;3.89;100.00
62510;BME280;48558;48.242;11.654;2023-01-31T13:31:36;96873.78;;;4.35;100.00
62510;BME280;48558;48.242;11.654;2023-01-31T13:40:56;96861.53;;;4.47;100.00
62510;BME280;48558;48.242;11.654;2023-01-31T13:45:31;96850.66;;;4.06;100.00
62510;BME280;48558;48.242;11.654;2023-01-31T13:49:57;96853.59;;;3.85;100.00
62510;BME280;48558;48.242;11.654;2023-01-31T13:54:37;96860.38;;;3.70;100.00
62510;BME280;48558;48.242;11.654;2023-01-31T13:58:53;96858.75;;;3.76;100.00
62510;BME280;48558;48.242;11.654;2023-01-31T14:03:11;96861.97;;;3.68;100.00
62510;BME280;48558;48.242;11.654;2023-01-31T14:07:34;96860.91;;;3.51;100.00
62510;BME280;48558;48.242;11.654;2023-01-31T14:11:47;96851.50;;;3.55;100.00
62510;BME280;48558;48.242;11.654;2023-01-31T14:16:00;96863.97;;;3.60;100.00
62510;BME280;48558;48.242;11.654;2023-01-31T14:20:39;96845.63;;;3.60;100.00
62510;BME280;48558;48.242;11.654;2023-01-31T14:29:18;96823.38;;;3.58;100.00
62510;BME280;48558;48.242;11.654;2023-01-31T14:33:33;96847.56;;;3.60;100.00
62510;BME280;48558;48.242;11.654;2023-01-31T14:42:49;96833.59;;;3.51;100.00
62510;BME280;48558;48.242;11.654;2023-01-31T14:57:05;96826.47;;;3.64;100.00
62510;BME280;48558;48.242;11.654;2023-01-31T15:01:21;96849.56;;;3.56;100.00
62510;BME280;48558;48.242;11.654;2023-01-31T15:06:07;96848.75;;;3.59;100.00
62510;BME280;48558;48.242;11.654;2023-01-31T15:15:36;96814.81;;;3.56;100.00
62510;BME280;48558;48.242;11.654;2023-01-31T15:19:53;96810.50;;;3.59;100.00
62510;BME280;48558;48.242;11.654;2023-01-31T15:24:46;96823.03;;;3.53;100.00
62510;BME280;48558;48.242;11.654;2023-01-31T15:29:02;96829.28;;;3.57;100.00
62510;BME280;48558;48.242;11.654;2023-01-31T15:33:19;96844.53;;;3.51;100.00
62510;BME280;48558;48.242;11.654;2023-01-31T15:37:39;96822.72;;;3.47;100.00
62510;BME280;48558;48.242;11.654;2023-01-31T15:42:20;96794.66;;;3.43;100.00
62510;BME280;48558;48.242;11.654;2023-01-31T15:46:33;96780.94;;;3.47;100.00
62510;BME280;48558;48.242;11.654;2023-01-31T15:50:55;96813.25;;;3.59;100.00
62510;BME280;48558;48.242;11.654;2023-01-31T15:55:12;96802.03;;;3.46;100.00
62510;BME280;48558;48.242;11.654;2023-01-31T15:59:28;96817.25;;;3.44;100.00
62510;BME280;48558;48.242;11.654;2023-01-31T16:03:54;96807.84;;;3.48;100.00
62510;BME280;48558;48.242;11.654;2023-01-31T16:08:20;96827.81;;;3.42;100.00
62510;BME280;48558;48.242;11.654;2023-01-31T16:12:43;96837.06;;;3.58;100.00
62510;BME280;48558;48.242;11.654;2023-01-31T16:16:58;96830.88;;;3.51;100.00
62510;BME280;48558;48.242;11.654;2023-01-31T16:25:49;96837.16;;;3.48;100.00
62510;BME280;48558;48.242;11.654;2023-01-31T16:30:05;96815.72;;;3.43;100.00
62510;BME280;48558;48.242;11.654;2023-01-31T16:38:40;96828.28;;;3.37;100.00
62510;BME280;48558;48.242;11.654;2023-01-31T16:43:26;96839.16;;;3.40;100.00
62510;BME280;48558;48.242;11.654;2023-01-31T16:52:16;96845.34;;;3.48;100.00
62510;BME280;48558;48.242;11.654;2023-01-31T16:56:35;96841.06;;;3.47;100.00
62510;BME280;48558;48.242;11.654;2023-01-31T17:00:48;96838.38;;;3.43;100.00
62510;BME280;48558;48.242;11.654;2023-01-31T17:09:31;96838.38;;;3.43;100.00
62510;BME280;48558;48.242;11.654;2023-01-31T17:13:51;96844.91;;;3.53;100.00
62510;BME280;48558;48.242;11.654;2023-01-31T17:18:04;96853.03;;;3.60;100.00
62510;BME280;48558;48.242;11.654;2023-01-31T17:22:26;96841.34;;;3.59;100.00
62510;BME280;48558;48.242;11.654;2023-01-31T17:26:39;96855.38;;;3.61;100.00
62510;BME280;48558;48.242;11.654;2023-01-31T17:30:51;96836.25;;;3.61;100.00
62510;BME280;48558;48.242;11.654;2023-01-31T17:35:16;96854.91;;;3.70;100.00
62510;BME280;48558;48.242;11.654;2023-01-31T17:39:41;96845.56;;;3.68;100.00
62510;BME280;48558;48.242;11.654;2023-01-31T17:43:54;96834.66;;;3.64;100.00
62510;BME280;48558;48.242;11.654;2023-01-31T17:48:06;96857.28;;;3.64;100.00
62510;BME280;48558;48.242;11.654;2023-01-31T17:52:24;96851.44;;;3.62;100.00
62510;BME280;48558;48.242;11.654;2023-01-31T17:56:37;96843.72;;;3.54;100.00
62510;BME280;48558;48.242;11.654;2023-01-31T18:00:49;96851.50;;;3.55;100.00
62510;BME280;48558;48.242;11.654;2023-01-31T18:05:02;96862.38;;;3.66;100.00
62510;BME280;48558;48.242;11.654;2023-01-31T18:09:16;96850.75;;;3.55;100.00
62510;BME280;48558;48.242;11.654;2023-01-31T18:13:29;96860.91;;;3.51;100.00
62510;BME280;48558;48.242;11.654;2023-01-31T18:17:42;96863.63;;;3.54;100.00
62510;BME280;48558;48.242;11.654;2023-01-31T18:21:54;96862.84;;;3.54;100.00
62510;BME280;48558;48.242;11.654;2023-01-31T18:26:09;96864.78;;;3.57;100.00
62510;BME280;48558;48.242;11.654;2023-01-31T18:30:22;96870.69;;;3.52;100.00
62510;BME280;48558;48.242;11.654;2023-01-31T18:34:35;96871.47;;;3.52;100.00
62510;BME280;48558;48.242;11.654;2023-01-31T18:38:49;96862.84;;;3.54;100.00
62510;BME280;48558;48.242;11.654;2023-01-31T18:43:02;96858.56;;;3.53;100.00
62510;BME280;48558;48.242;11.654;2023-01-31T18:47:14;96859.38;;;3.46;100.00
62510;BME280;48558;48.242;11.654;2023-01-31T18:51:37;96867.56;;;3.50;100.00
62510;BME280;48558;48.242;11.654;2023-01-31T18:56:00;96870.63;;;3.59;100.00
62510;BME280;48558;48.242;11.654;2023-01-31T19:00:16;96871.41;;;3.56;100.00
62510;BME280;48558;48.242;11.654;2023-01-31T19:04:29;96880.41;;;3.53;100.00
62510;BME280;48558;48.242;11.654;2023-01-31T19:08:46;96879.25;;;3.54;100.00
62510;BME280;48558;48.242;11.654;2023-01-31T19:12:59;96874.91;;;3.60;100.00
62510;BME280;48558;48.242;11.654;2023-01-31T19:17:12;96874.50;;;3.61;100.00
62510;BME280;48558;48.242;11.654;2023-01-31T19:21:28;96872.09;;;3.67;100.00
62510;BME280;48558;48.242;11.654;2023-01-31T19:25:42;96867.47;;;3.60;100.00
62510;BME280;48558;48.242;11.654;2023-01-31T19:29:55;96849.06;;;3.68;100.00
62510;BME280;48558;48.242;11.654;2023-01-31T19:34:07;96863.84;;;3.74;100.00
62510;BME280;48558;48.242;11.654;2023-01-31T19:38:20;96839.25;;;3.74;100.00
62510;BME280;48558;48.242;11.654;2023-01-31T19:52:58;96813.50;;;3.72;100.00
62510;BME280;48558;48.242;11.654;2023-01-31T19:57:10;96803.78;;;3.67;100.00
62510;BME280;48558;48.242;11.654;2023-01-31T20:01:23;96815.00;;;3.80;100.00
62510;BME280;48558;48.242;11.654;2023-01-31T20:05:35;96831.28;;;3.90;100.00
62510;BME280;48558;48.242;11.654;2023-01-31T20:09:48;96828.59;;;3.87;100.00
62510;BME280;48558;48.242;11.654;2023-01-31T20:14:01;96829.34;;;3.87;100.00
62510;BME280;48558;48.242;11.654;2023-01-31T20:18:15;96850.41;;;3.90;100.00
62510;BME280;48558;48.242;11.654;2023-01-31T20:22:28;96835.94;;;3.93;100.00
62510;BME280;48558;48.242;11.654;2023-01-31T20:26:40;96830.91;;;3.88;100.00
62510;BME280;48558;48.242;11.654;2023-01-31T20:30:53;96843.38;;;3.93;100.00
62510;BME280;48558;48.242;11.654;2023-01-31T20:35:10;96843.38;;;3.89;100.00
62510;BME280;48558;48.242;11.654;2023-01-31T20:39:22;96836.03;;;3.83;100.00
62510;BME280;48558;48.242;11.654;2023-01-31T20:43:36;96830.19;;;3.81;100.00
62510;BME280;48558;48.242;11.654;2023-01-31T20:47:49;96831.72;;;3.85;100.00
62510;BME280;48558;48.242;11.654;2023-01-31T20:52:01;96829.69;;;3.93;100.00
62510;BME280;48558;48.242;11.654;2023-01-31T20:56:14;96859.00;;;3.92;100.00
62510;BME280;48558;48.242;11.654;2023-01-31T21:00:26;96859.00;;;3.92;100.00
62510;BME280;48558;48.242;11.654;2023-01-31T21:04:39;96847.75;;;3.83;100.00
62510;BME280;48558;48.242;11.654;2023-01-31T21:08:51;96856.66;;;3.91;100.00
62510;BME280;48558;48.242;11.654;2023-01-31T21:13:04;96826.25;;;3.85;100.00
62510;BME280;48558;48.242;11.654;2023-01-31T21:17:16;96836.09;;;3.76;100.00
62510;BME280;48558;48.242;11.654;2023-01-31T21:21:41;96850.53;;;3.80;100.00
62510;BME280;48558;48.242;11.654;2023-01-31T21:25:59;96845.44;;;3.78;100.00
62510;BME280;48558;48.242;11.654;2023-01-31T21:30:16;96838.16;;;3.68;100.00
62510;BME280;48558;48.242;11.654;2023-01-31T21:34:29;96829.94;;;3.68;100.00
62510;BME280;48558;48.242;11.654;2023-01-31T21:38:42;96838.09;;;3.75;100.00
62510;BME280;48558;48.242;11.654;2023-01-31T21:42:55;96824.47;;;3.68;100.00
62510;BME280;48558;48.242;11.654;2023-01-31T21:47:18;96833.84;;;3.71;100.00
62510;BME280;48558;48.242;11.654;2023-01-31T21:51:30;96816.72;;;3.63;100.00
62510;BME280;48558;48.242;11.654;2023-01-31T21:55:43;96820.97;;;3.68;100.00
62510;BME280;48558;48.242;11.654;2023-01-31T21:59:55;96807.00;;;3.58;100.00
62510;BME280;48558;48.242;11.654;2023-01-31T22:04:08;96802.31;;;3.59;100.00
62510;BME280;48558;48.242;11.654;2023-01-31T22:08:21;96775.06;;;3.48;100.00
62510;BME280;48558;48.242;11.654;2023-01-31T22:12:34;96788.66;;;3.55;100.00
62510;BME280;48558;48.242;11.654;2023-01-31T22:16:54;96777.13;;;3.41;100.00
62510;BME280;48558;48.242;11.654;2023-01-31T22:25:25;96784.09;;;3.45;100.00
62510;BME280;48558;48.242;11.654;2023-01-31T22:29:37;96782.16;;;3.46;100.00
62510;BME280;48558;48.242;11.654;2023-01-31T22:34:00;96793.06;;;3.46;100.00
62510;BME280;48558;48.242;11.654;2023-01-31T22:38:14;96758.13;;;3.27;100.00
62510;BME280;48558;48.242;11.654;2023-01-31T22:42:27;96798.53;;;3.46;100.00
62510;BME280;48558;48.242;11.654;2023-01-31T22:46:39;96800.81;;;3.51;100.00
62510;BME280;48558;48.242;11.654;2023-01-31T22:50:58;96810.56;;;3.52;100.00
62510;BME280;48558;48.242;11.654;2023-01-31T22:55:12;96809.53;;;3.39;100.00
62510;BME280;48558;48.242;11.654;2023-01-31T22:59:24;96822.78;;;3.40;100.00
62510;BME280;48558;48.242;11.654;2023-01-31T23:03:37;96800.97;;;3.33;100.00
62510;BME280;48558;48.242;11.654;2023-01-31T23:07:52;96811.00;;;3.47;100.00
62510;BME280;48558;48.242;11.654;2023-01-31T23:12:06;96830.88;;;3.51;100.00
62510;BME280;48558;48.242;11.654;2023-01-31T23:16:21;96814.09;;;3.52;100.00
62510;BME280;48558;48.242;11.654;2023-01-31T23:20:53;96806.19;;;3.61;100.00
62510;BME280;48558;48.242;11.654;2023-01-31T23:25:08;96818.28;;;3.64;100.00
62510;BME280;48558;48.242;11.654;2023-01-31T23:29:22;96807.72;;;3.62;100.00
62510;BME280;48558;48.242;11.654;2023-01-31T23:33:34;96791.03;;;3.57;100.00
62510;BME280;48558;48.242;11.654;2023-01-31T23:37:47;96794.84;;;3.63;100.00
62510;BME280;48558;48.242;11.654;2023-01-31T23:41:59;96771.78;;;3.68;100.00
62510;BME280;48558;48.242;11.654;2023-01-31T23:46:22;96783.38;;;3.79;100.00
62510;BME280;48558;48.242;11.654;2023-01-31T23:50:36;96781.06;;;3.77;100.00
62510;BME280;48558;48.242;11.654;2023-01-31T23:54:49;96759.22;;;3.74;100.00
62510;BME280;48558;48.242;11.654;2023-01-31T23:59:01;96762.69;;;3.78;100.00
